createdAt,value
2022-08-19T00:00:15.087Z,60.48
2022-08-19T00:05:17.111Z,60.73
2022-08-19T00:10:20.634Z,60.48
2022-08-19T00:15:23.551Z,60.71
2022-08-19T00:20:25.219Z,60.93
2022-08-19T00:25:30.350Z,61.71
2022-08-19T00:30:32.446Z,61.63
2022-08-19T00:35:34.617Z,61.91
2022-08-19T00:40:36.280Z,62.46
2022-08-19T00:45:37.983Z,62.63
2022-08-19T00:50:52.062Z,62.97
2022-08-19T00:55:57.686Z,62.93
2022-08-19T01:00:59.563Z,63.63
2022-08-19T01:06:01.404Z,65.27
2022-08-19T01:11:03.640Z,67.28
2022-08-19T01:16:13.502Z,66.75
2022-08-19T01:21:30.867Z,66.83
2022-08-19T01:26:32.476Z,66.41
2022-08-19T01:31:34.666Z,66.73
2022-08-19T01:36:42.924Z,67.07
2022-08-19T01:41:44.728Z,67.32
2022-08-19T01:46:48.857Z,66.61
2022-08-19T01:51:50.725Z,67.18
2022-08-19T01:56:56.097Z,66.45
2022-08-19T02:01:57.760Z,67.01
2022-08-19T02:06:59.336Z,66.73
2022-08-19T02:12:01.715Z,67.20
2022-08-19T02:17:03.921Z,66.76
2022-08-19T02:22:05.893Z,67.23
2022-08-19T02:27:07.667Z,67.03
2022-08-19T02:32:09.275Z,67.22
2022-08-19T02:37:30.919Z,67.26
2022-08-19T02:42:37.014Z,67.86
2022-08-19T02:47:38.748Z,67.67
2022-08-19T02:52:40.351Z,68.21
2022-08-19T02:57:43.028Z,68.05
2022-08-19T03:02:44.710Z,68.21
2022-08-19T03:07:47.566Z,68.65
2022-08-19T03:12:49.254Z,68.70
2022-08-19T03:17:51.022Z,69.19
2022-08-19T03:22:52.686Z,68.86
2022-08-19T03:27:54.373Z,69.68
2022-08-19T03:32:57.048Z,69.02
2022-08-19T03:38:01.842Z,69.46
2022-08-19T03:43:03.893Z,69.73
2022-08-19T03:48:05.636Z,69.69
2022-08-19T03:53:08.377Z,69.69
2022-08-19T03:58:12.059Z,69.98
2022-08-19T04:03:13.671Z,70.96
2022-08-19T04:08:19.134Z,71.07
2022-08-19T04:13:20.774Z,71.17
2022-08-19T04:18:22.343Z,70.90
2022-08-19T04:23:24.766Z,71.17
2022-08-19T04:28:27.100Z,70.79
2022-08-19T04:33:29.643Z,71.26
2022-08-19T04:38:31.302Z,71.17
2022-08-19T04:43:33.808Z,71.28
2022-08-19T04:48:36.568Z,71.44
2022-08-19T04:53:47.048Z,71.75
2022-08-19T04:58:49.489Z,71.52
2022-08-19T05:03:51.520Z,71.49
2022-08-19T05:08:53.181Z,71.81
2022-08-19T05:13:55.752Z,71.62
2022-08-19T05:19:16.031Z,72.31
2022-08-19T05:24:18.261Z,71.90
2022-08-19T05:29:22.398Z,71.97
2022-08-19T05:34:27.009Z,71.70
2022-08-19T05:39:31.712Z,71.67
2022-08-19T05:44:37.375Z,71.58
2022-08-19T05:49:39.391Z,71.28
2022-08-19T05:54:42.584Z,71.16
2022-08-19T05:59:46.796Z,70.93
2022-08-19T06:04:48.389Z,70.57
2022-08-19T06:09:59.811Z,70.69
2022-08-19T06:15:06.913Z,70.57
2022-08-19T06:20:12.981Z,70.09
2022-08-19T06:25:15.715Z,69.13
2022-08-19T06:30:17.580Z,69.87
2022-08-19T06:35:19.464Z,68.68
2022-08-19T06:40:21.209Z,68.17
2022-08-19T06:45:34.405Z,67.07
2022-08-19T06:50:39.396Z,67.20
2022-08-19T06:55:42.147Z,66.68
2022-08-19T07:00:43.834Z,66.64
2022-08-19T07:05:46.258Z,64.39
2022-08-19T07:10:48.947Z,65.06
2022-08-19T07:15:51.293Z,64.65
2022-08-19T07:21:04.319Z,63.93
2022-08-19T07:26:20.298Z,62.42
2022-08-19T07:31:31.111Z,61.90
2022-08-19T07:36:33.332Z,60.14
2022-08-19T07:41:37.992Z,60.74
2022-08-19T07:46:42.178Z,60.50
2022-08-19T07:51:49.350Z,59.66
2022-08-19T07:56:52.508Z,58.53
2022-08-19T08:01:54.914Z,58.08
2022-08-19T08:07:15.514Z,56.64
2022-08-19T08:12:34.101Z,55.76
2022-08-19T08:17:49.678Z,54.11
2022-08-19T08:23:12.099Z,53.96
2022-08-19T08:28:17.656Z,52.50
2022-08-19T08:33:32.769Z,52.87
2022-08-19T08:38:41.706Z,52.33
2022-08-19T08:43:47.282Z,52.07
2022-08-19T08:49:15.184Z,53.10
2022-08-19T08:54:21.624Z,52.38
2022-08-19T08:59:33.392Z,50.73
2022-08-19T09:04:36.871Z,50.44
2022-08-19T09:09:42.904Z,51.56
2022-08-19T09:15:05.443Z,47.37
2022-08-19T09:20:11.273Z,48.79
2022-08-19T09:25:16.400Z,49.78
2022-08-19T09:30:24.886Z,49.01
2022-08-19T09:35:29.881Z,48.82
2022-08-19T09:40:35.465Z,48.83
2022-08-19T09:45:40.417Z,48.51
2022-08-19T09:50:51.874Z,48.04
2022-08-19T09:55:56.290Z,48.07
2022-08-19T10:00:59.655Z,46.43
2022-08-19T10:06:04.417Z,46.67
2022-08-19T10:11:27.259Z,47.71
2022-08-19T10:16:30.160Z,46.10
2022-08-19T10:21:33.974Z,45.21
2022-08-19T10:26:38.147Z,45.84
2022-08-19T10:31:59.788Z,45.61
2022-08-19T10:37:02.146Z,45.67
2022-08-19T10:42:08.037Z,45.39
2022-08-19T10:47:21.875Z,43.89
2022-08-19T10:52:38.981Z,43.64
2022-08-19T10:58:01.278Z,44.44
2022-08-19T11:03:03.060Z,43.56
2022-08-19T11:08:22.092Z,42.44
2022-08-19T11:13:25.664Z,44.53
2022-08-19T11:18:27.561Z,43.40
2022-08-19T11:23:29.187Z,43.42
2022-08-19T11:28:30.984Z,45.33
2022-08-19T11:33:33.765Z,42.52
2022-08-19T11:38:36.692Z,44.08
2022-08-19T11:43:38.780Z,43.08
2022-08-19T11:48:41.136Z,42.01
2022-08-19T11:53:42.797Z,43.78
2022-08-19T11:58:44.754Z,41.85
2022-08-19T12:03:48.465Z,42.09
2022-08-19T12:08:50.650Z,41.23
2022-08-19T12:13:53.169Z,39.09
2022-08-19T12:18:56.730Z,40.11
2022-08-19T12:24:00.036Z,40.78
2022-08-19T12:29:01.705Z,40.43
2022-08-19T12:34:03.500Z,40.24
2022-08-19T12:39:07.566Z,39.43
2022-08-19T12:44:13.419Z,39.61
2022-08-19T12:49:52.172Z,40.70
2022-08-19T12:54:38.503Z,40.37
2022-08-19T12:59:40.162Z,39.45
2022-08-19T13:04:42.142Z,37.71
2022-08-19T13:09:43.815Z,38.61
2022-08-19T13:14:51.399Z,39.60
2022-08-19T13:19:53.123Z,38.19
2022-08-19T13:24:54.881Z,39.44
2022-08-19T13:30:15.044Z,38.65
2022-08-19T13:35:18.067Z,40.07
2022-08-19T13:40:27.207Z,39.06
2022-08-19T13:45:30.865Z,39.85
2022-08-19T13:50:32.535Z,41.08
2022-08-19T13:55:34.704Z,40.81
2022-08-19T14:00:40.163Z,41.92
2022-08-19T14:05:41.815Z,42.00
2022-08-19T14:10:45.747Z,42.45
2022-08-19T14:15:48.448Z,41.56
2022-08-19T14:20:50.133Z,43.12
2022-08-19T14:25:51.804Z,42.77
2022-08-19T14:30:56.547Z,42.33
2022-08-19T14:35:59.602Z,42.91
2022-08-19T14:41:09.089Z,42.71
2022-08-19T14:46:11.541Z,43.48
2022-08-19T14:51:13.918Z,43.38
2022-08-19T14:56:19.259Z,43.79
2022-08-19T15:01:23.515Z,43.99
2022-08-19T15:06:26.302Z,43.56
2022-08-19T15:11:28.859Z,44.68
2022-08-19T15:16:30.978Z,44.73
2022-08-19T15:21:33.375Z,46.63
2022-08-19T15:26:34.990Z,48.08
2022-08-19T15:31:38.237Z,48.41
2022-08-19T15:36:40.524Z,49.36
2022-08-19T15:41:42.911Z,49.18
2022-08-19T15:46:48.750Z,49.70
2022-08-19T15:51:53.005Z,50.29
2022-08-19T15:57:13.307Z,51.58
2022-08-19T16:02:37.213Z,52.23
2022-08-19T16:07:39.212Z,52.27
2022-08-19T16:12:41.641Z,53.42
2022-08-19T16:17:43.551Z,53.02
2022-08-19T16:22:59.218Z,55.36
2022-08-19T16:28:06.538Z,56.12
2022-08-19T16:33:10.169Z,56.28
2022-08-19T16:38:11.954Z,56.10
2022-08-19T16:43:13.527Z,55.97
2022-08-19T16:48:15.114Z,56.51
2022-08-19T16:53:19.548Z,55.57
2022-08-19T16:58:22.459Z,54.75
2022-08-19T17:03:35.805Z,53.86
2022-08-19T17:08:37.729Z,54.32
2022-08-19T17:13:39.288Z,54.11
2022-08-19T17:18:40.920Z,54.52
2022-08-19T17:23:44.107Z,54.38
2022-08-19T17:28:51.352Z,54.71
2022-08-19T17:33:55.032Z,54.84
2022-08-19T17:39:00.560Z,54.94
2022-08-19T17:44:03.387Z,55.92
2022-08-19T17:49:05.045Z,55.91
2022-08-19T17:54:15.938Z,55.91
2022-08-19T17:59:17.547Z,55.98
2022-08-19T18:04:20.065Z,55.66
2022-08-19T18:09:38.715Z,55.62
2022-08-19T18:14:44.284Z,56.30
2022-08-19T18:19:47.642Z,56.59
2022-08-19T18:24:49.627Z,57.00
2022-08-19T18:29:51.287Z,57.30
2022-08-19T18:34:53.725Z,57.13
2022-08-19T18:40:14.089Z,57.37
2022-08-19T18:45:34.368Z,57.98
2022-08-19T18:50:37.534Z,58.39
2022-08-19T18:55:39.359Z,59.37
2022-08-19T19:00:41.977Z,59.77
2022-08-19T19:05:44.369Z,60.58
2022-08-19T19:10:45.999Z,61.29
2022-08-19T19:15:48.807Z,61.64
2022-08-19T19:20:50.415Z,61.94
2022-08-19T19:25:52.434Z,62.43
2022-08-19T19:30:58.536Z,63.60
2022-08-19T19:36:00.202Z,63.08
2022-08-19T19:41:02.152Z,63.64
2022-08-19T19:46:03.890Z,64.58
2022-08-19T19:51:09.247Z,65.67
2022-08-19T19:56:13.031Z,66.14
2022-08-19T20:01:21.699Z,69.39
2022-08-19T20:06:29.079Z,70.48
2022-08-19T20:11:47.166Z,72.15
2022-08-19T20:16:49.885Z,74.49
2022-08-19T20:21:52.206Z,74.56
2022-08-19T20:26:54.144Z,76.81
2022-08-19T20:31:57.791Z,75.28
2022-08-19T20:37:01.117Z,74.44
2022-08-19T20:42:02.714Z,72.12
2022-08-19T20:47:04.448Z,71.49
2022-08-19T20:52:06.592Z,71.40
2022-08-19T20:57:08.801Z,71.89
2022-08-19T21:02:11.213Z,72.28
2022-08-19T21:07:12.793Z,73.19
2022-08-19T21:12:14.665Z,74.04
2022-08-19T21:17:16.252Z,72.90
2022-08-19T21:22:17.823Z,73.95
2022-08-19T21:27:19.408Z,73.40
2022-08-19T21:32:21.526Z,72.37
2022-08-19T21:37:25.614Z,72.61
2022-08-19T21:42:27.720Z,71.94
2022-08-19T21:47:29.287Z,71.38
2022-08-19T21:52:30.969Z,71.01
2022-08-19T21:57:32.715Z,71.01
2022-08-19T22:02:34.589Z,71.27
2022-08-19T22:07:37.010Z,71.78
2022-08-19T22:12:47.387Z,72.47
2022-08-19T22:17:54.482Z,72.29
2022-08-19T22:22:59.465Z,71.53
2022-08-19T22:28:03.566Z,71.75
2022-08-19T22:33:09.138Z,71.92
2022-08-19T22:38:11.988Z,72.41
2022-08-19T22:43:18.140Z,72.51
2022-08-19T22:48:22.813Z,72.33
2022-08-19T22:53:24.398Z,72.36
2022-08-19T22:58:28.158Z,72.09
2022-08-19T23:03:30.242Z,72.88
2022-08-19T23:08:31.826Z,73.31
2022-08-19T23:13:33.518Z,73.86
2022-08-19T23:18:35.357Z,74.33
2022-08-19T23:23:39.342Z,74.36
2022-08-19T23:28:59.289Z,74.41
2022-08-19T23:34:01.031Z,74.55
2022-08-19T23:39:03.006Z,75.93
2022-08-19T23:44:05.638Z,75.61
2022-08-19T23:49:16.128Z,75.96
2022-08-19T23:54:17.796Z,75.73
2022-08-19T23:59:19.662Z,76.54
